Bolingbrook, Illinois
Current Conditions -  °F | °C
As of 9:55 AM on Thursday 23 Oct 2014 (Local Time) from KLOT Reporting Station
Clear Clear  
Wind Chill: 44°   Ceiling: Unl
Heat Index: 48°   Visibility: 7mi
Dew Point: 41°   Wind: 10mph
Humidity: 76%   Direction: 200°SSW
Pressure: 30.22"   Gusts: NA
Location:  41.7°N, 88.08°W
Report Text: KLOT 231455Z AUTO 20009KT 7SM CLR 09/05 A3022 RMK AO2 T00900050
Loading
Personal Weather Stations






























Interactive Weather Map
Tropical Storm Tracking
New forecast layout! Learn more

10-Day Weather Forecast

Advertisements
Track Severe Weather on mobile